Time;durP1;ratioP1;P1;durP2;ratioP2;P2;SDS_P1;SDS_P2;PMS_P1;PMS_P2;Temp;Humidity;BMP_temperature;BMP_pressure;BME280_temperature;BME280_humidity;BME280_pressure;Samples;Min_cycle;Max_cycle;Signal;HPM_P1;HPM_P2
2021/12/27 00:00:34;;;;;;;1.63;1.53;;;-5.80;99.90;;;;;;5031213;28;20680;-87
2021/12/27 00:03:01;;;;;;;1.43;1.33;;;-5.90;99.90;;;;;;5031488;28;20238;-87
2021/12/27 00:05:28;;;;;;;1.67;1.57;;;-5.90;99.90;;;;;;5030881;28;20468;-86
2021/12/27 00:07:54;;;;;;;1.50;1.40;;;-5.80;99.90;;;;;;5031461;28;20469;-86
2021/12/27 00:10:22;;;;;;;1.60;1.50;;;-5.70;99.90;;;;;;5031017;28;21007;-86
2021/12/27 00:12:48;;;;;;;1.47;1.37;;;-5.60;99.90;;;;;;5029966;28;20478;-86
2021/12/27 00:15:14;;;;;;;1.33;1.23;;;-5.50;99.90;;;;;;5030780;28;20518;-86
2021/12/27 00:17:41;;;;;;;1.30;1.20;;;-5.50;99.90;;;;;;5030436;28;20426;-87
2021/12/27 00:20:09;;;;;;;1.40;1.30;;;-5.40;99.90;;;;;;5046140;28;20533;-86
2021/12/27 00:22:34;;;;;;;1.57;1.47;;;-5.40;99.90;;;;;;5029055;28;20454;-86
2021/12/27 00:25:00;;;;;;;1.37;1.27;;;-5.50;99.90;;;;;;5030783;28;20429;-85
2021/12/27 00:27:26;;;;;;;1.20;1.10;;;-5.50;99.90;;;;;;5030055;28;20192;-86
2021/12/27 00:29:52;;;;;;;1.50;1.40;;;-5.60;99.90;;;;;;5021700;28;20223;-86
2021/12/27 00:32:18;;;;;;;1.47;1.37;;;-5.60;99.90;;;;;;5029790;28;20215;-87
2021/12/27 00:34:44;;;;;;;1.50;1.40;;;-5.40;99.90;;;;;;5029115;28;20858;-87
2021/12/27 00:37:09;;;;;;;1.60;1.50;;;-5.30;99.90;;;;;;5029011;28;20504;-86
2021/12/27 00:39:35;;;;;;;1.40;1.30;;;-5.40;99.90;;;;;;5029238;28;20180;-87
2021/12/27 00:42:01;;;;;;;1.30;1.20;;;-5.30;99.90;;;;;;5030501;28;20237;-86
2021/12/27 00:44:27;;;;;;;1.33;1.23;;;-5.30;99.90;;;;;;5029632;28;20215;-87
2021/12/27 00:46:53;;;;;;;1.27;1.17;;;-5.40;99.90;;;;;;5030574;28;20426;-86
2021/12/27 00:49:18;;;;;;;1.37;1.27;;;-5.40;99.90;;;;;;5029570;28;20430;-87
2021/12/27 00:51:44;;;;;;;1.43;1.33;;;-5.50;99.90;;;;;;5030022;28;20462;-87
2021/12/27 00:54:09;;;;;;;1.50;1.40;;;-5.40;99.90;;;;;;5030275;28;20241;-85
2021/12/27 00:56:35;;;;;;;1.17;1.07;;;-5.40;99.90;;;;;;5029692;28;20187;-87
2021/12/27 00:59:00;;;;;;;1.20;1.10;;;-5.50;99.90;;;;;;5030331;28;20218;-86
2021/12/27 01:01:26;;;;;;;1.40;1.30;;;-5.40;99.90;;;;;;5025896;28;20548;-87
2021/12/27 01:03:52;;;;;;;1.30;1.20;;;-5.40;99.90;;;;;;5014670;28;20185;-87
2021/12/27 01:06:17;;;;;;;1.53;1.43;;;-5.40;99.90;;;;;;5030162;28;20183;-86
2021/12/27 01:08:43;;;;;;;1.43;1.33;;;-5.40;99.90;;;;;;5028642;28;20271;-87
2021/12/27 01:11:23;;;;;;;1.57;1.47;;;-5.30;99.90;;;;;;5030148;28;20565;-87
2021/12/27 01:14:03;;;;;;;1.50;1.40;;;-5.30;99.90;;;;;;5029495;28;20766;-87
2021/12/27 01:16:29;;;;;;;1.63;1.53;;;-5.40;99.90;;;;;;5044576;28;20541;-87
2021/12/27 01:18:55;;;;;;;1.33;1.23;;;-5.40;99.90;;;;;;5028706;28;20989;-87
2021/12/27 01:21:22;;;;;;;1.30;1.20;;;-5.30;99.90;;;;;;5029681;28;20479;-86
2021/12/27 01:23:49;;;;;;;1.27;1.17;;;-5.30;99.90;;;;;;5029372;28;20191;-87
2021/12/27 01:26:15;;;;;;;1.30;1.20;;;-5.30;99.90;;;;;;5028431;28;20422;-86
2021/12/27 01:28:41;;;;;;;1.33;1.23;;;-5.30;99.90;;;;;;5030023;28;20449;-86
2021/12/27 01:31:07;;;;;;;1.60;1.50;;;-5.40;99.90;;;;;;5029749;28;20430;-86
2021/12/27 01:33:33;;;;;;;1.20;1.10;;;-5.50;99.90;;;;;;5028643;28;21023;-86
2021/12/27 01:36:00;;;;;;;22.23;3.63;;;-5.60;99.90;;;;;;5023508;28;20450;-86
2021/12/27 01:38:25;;;;;;;1.50;1.40;;;-5.60;99.90;;;;;;5044753;28;20541;-87
2021/12/27 01:40:55;;;;;;;1.57;1.47;;;-5.70;99.90;;;;;;5029541;28;20498;-87
2021/12/27 01:43:24;;;;;;;1.50;1.40;;;-5.60;99.90;;;;;;5029295;28;20191;-86
2021/12/27 01:45:54;;;;;;;1.70;1.60;;;-5.70;99.90;;;;;;5028724;28;20453;-86
2021/12/27 01:48:24;;;;;;;1.40;1.30;;;-5.50;99.90;;;;;;5027474;28;20465;-86
2021/12/27 01:50:52;;;;;;;1.23;1.13;;;-5.50;99.90;;;;;;5027901;28;20453;-86
2021/12/27 01:53:19;;;;;;;1.23;1.13;;;-5.70;99.90;;;;;;5029008;28;20521;-86
2021/12/27 01:55:46;;;;;;;1.50;1.40;;;-5.60;99.90;;;;;;5029558;28;20484;-86
2021/12/27 01:58:12;;;;;;;1.80;1.70;;;-5.50;99.90;;;;;;5027436;28;20445;-86
2021/12/27 02:00:44;;;;;;;1.77;1.67;;;-5.40;99.90;;;;;;5029376;28;20815;-87
2021/12/27 02:03:09;;;;;;;1.40;1.30;;;-5.40;99.90;;;;;;5028923;28;20294;-86
2021/12/27 02:05:36;;;;;;;1.50;1.40;;;-5.50;99.90;;;;;;5029126;28;20521;-86
2021/12/27 02:08:03;;;;;;;1.57;1.47;;;-5.40;99.90;;;;;;5018013;28;20195;-86
2021/12/27 02:10:29;;;;;;;1.30;1.20;;;-5.30;99.90;;;;;;5028573;28;20915;-86
2021/12/27 02:12:55;;;;;;;1.27;1.17;;;-5.40;99.90;;;;;;5044733;28;20569;-86
2021/12/27 02:15:21;;;;;;;1.30;1.20;;;-5.30;99.90;;;;;;5027298;28;20651;-86
2021/12/27 02:17:46;;;;;;;1.57;1.47;;;-5.40;99.90;;;;;;5027844;28;20495;-86
2021/12/27 02:20:19;;;;;;;1.30;1.20;;;-5.40;99.90;;;;;;5027615;28;20280;-86
2021/12/27 02:22:46;;;;;;;1.47;1.37;;;-5.40;99.90;;;;;;5027744;28;20199;-86
2021/12/27 02:25:12;;;;;;;1.50;1.40;;;-5.40;99.90;;;;;;5019424;28;20934;-86
2021/12/27 02:27:38;;;;;;;1.33;1.23;;;-5.40;99.90;;;;;;5024611;28;20433;-86
2021/12/27 02:30:07;;;;;;;3.30;3.00;;;-5.40;99.90;;;;;;5028825;28;20184;-86
2021/12/27 02:32:43;;;;;;;1.40;1.30;;;-5.40;99.90;;;;;;5023151;28;21034;-86
2021/12/27 02:35:13;;;;;;;1.30;1.20;;;-5.50;99.90;;;;;;5026823;28;20444;-87
2021/12/27 02:37:38;;;;;;;1.60;1.50;;;-5.50;99.90;;;;;;5025916;28;20446;-87
2021/12/27 02:40:04;;;;;;;1.60;1.50;;;-5.50;99.90;;;;;;5028613;28;20472;-86
2021/12/27 02:42:30;;;;;;;1.20;1.10;;;-5.40;99.90;;;;;;5027272;28;20195;-86
2021/12/27 02:44:55;;;;;;;1.67;1.57;;;-5.40;99.90;;;;;;5026897;28;20418;-86
2021/12/27 02:47:21;;;;;;;1.70;1.60;;;-5.40;99.90;;;;;;5028361;28;20195;-86
2021/12/27 02:49:46;;;;;;;1.33;1.23;;;-5.30;99.90;;;;;;5028752;28;20190;-86
2021/12/27 02:52:12;;;;;;;1.70;1.60;;;-5.20;99.90;;;;;;5028077;28;20208;-86
2021/12/27 02:54:41;;;;;;;1.50;1.40;;;-5.20;99.90;;;;;;5027915;28;20744;-86
2021/12/27 02:57:08;;;;;;;1.50;1.40;;;-5.30;99.90;;;;;;5028258;28;20187;-87
2021/12/27 02:59:34;;;;;;;1.70;1.60;;;-5.20;99.90;;;;;;5028528;28;20983;-86
2021/12/27 03:01:59;;;;;;;1.20;1.10;;;-5.20;99.90;;;;;;5025145;28;20426;-86
2021/12/27 03:04:25;;;;;;;1.50;1.40;;;-5.20;99.90;;;;;;5028582;28;20207;-86
2021/12/27 03:06:50;;;;;;;2.80;2.60;;;-5.20;99.90;;;;;;5028439;28;20199;-85
2021/12/27 03:09:16;;;;;;;2.80;2.63;;;-5.20;99.90;;;;;;5027078;28;20188;-86
2021/12/27 03:11:41;;;;;;;1.40;1.30;;;-5.10;99.90;;;;;;5028391;28;20222;-86
2021/12/27 03:14:07;;;;;;;1.40;1.30;;;-5.10;99.90;;;;;;5027789;28;20199;-86
2021/12/27 03:16:32;;;;;;;1.30;1.20;;;-5.20;99.90;;;;;;5027734;28;20184;-86
2021/12/27 03:18:58;;;;;;;1.50;1.40;;;-5.20;99.90;;;;;;5026846;28;20195;-86
2021/12/27 03:21:23;;;;;;;1.60;1.50;;;-5.30;99.90;;;;;;5029082;28;20230;-87
2021/12/27 03:23:49;;;;;;;1.40;1.30;;;-5.30;99.90;;;;;;5031928;28;20759;-87
2021/12/27 03:26:15;;;;;;;1.30;1.20;;;-5.30;99.90;;;;;;5020638;28;20627;-87
2021/12/27 03:28:42;;;;;;;1.30;1.20;;;-5.20;99.90;;;;;;5029299;28;20430;-86
2021/12/27 03:31:09;;;;;;;2.20;2.10;;;-5.30;99.90;;;;;;5034062;28;20199;-86
2021/12/27 03:33:35;;;;;;;1.40;1.30;;;-5.20;99.90;;;;;;5030862;28;20850;-85
2021/12/27 03:36:03;;;;;;;1.27;1.17;;;-5.20;99.90;;;;;;5033765;28;20445;-86
2021/12/27 03:38:40;;;;;;;1.30;1.20;;;-5.10;99.90;;;;;;5031886;28;20240;-86
2021/12/27 03:41:09;;;;;;;1.30;1.20;;;-5.10;99.90;;;;;;5030042;28;20468;-86
2021/12/27 03:43:35;;;;;;;1.47;1.37;;;-5.10;99.90;;;;;;5019984;28;20455;-86
2021/12/27 03:46:00;;;;;;;1.23;1.13;;;-5.00;99.90;;;;;;5031470;28;20446;-86
2021/12/27 03:48:26;;;;;;;1.57;1.47;;;-4.90;99.90;;;;;;5031645;28;20187;-87
2021/12/27 03:50:52;;;;;;;1.20;1.10;;;-4.90;99.90;;;;;;5030118;28;20219;-86
2021/12/27 03:53:18;;;;;;;1.60;1.50;;;-4.90;99.90;;;;;;5031282;28;20616;-86
2021/12/27 03:55:43;;;;;;;1.30;1.20;;;-4.80;99.90;;;;;;5030842;28;20437;-86
2021/12/27 03:58:10;;;;;;;1.30;1.20;;;-4.80;99.90;;;;;;5028020;28;20207;-86
2021/12/27 04:03:20;;;;;;;1.37;1.27;;;-4.70;99.90;;;;;;5030977;28;20510;-86
2021/12/27 04:05:48;;;;;;;2.83;2.63;;;-4.60;99.90;;;;;;5031430;28;20438;-86
2021/12/27 04:08:17;;;;;;;1.50;1.40;;;-4.60;99.90;;;;;;5030974;28;20453;-86
2021/12/27 04:10:44;;;;;;;1.60;1.50;;;-4.50;99.90;;;;;;5031107;28;20427;-85
2021/12/27 04:13:10;;;;;;;1.27;1.17;;;-4.50;99.90;;;;;;5030663;28;20492;-86
2021/12/27 04:15:37;;;;;;;1.40;1.30;;;-4.40;99.90;;;;;;5028011;28;20624;-86
2021/12/27 04:18:03;;;;;;;1.70;1.60;;;-4.40;99.90;;;;;;5031001;28;20430;-86
2021/12/27 04:20:29;;;;;;;1.37;1.27;;;-4.40;99.90;;;;;;5030511;28;20449;-86
2021/12/27 04:22:55;;;;;;;2.20;2.10;;;-4.30;99.90;;;;;;5030442;28;20450;-86
2021/12/27 04:25:22;;;;;;;1.20;1.10;;;-4.30;99.90;;;;;;5031252;28;20318;-86
2021/12/27 04:27:49;;;;;;;1.33;1.23;;;-4.30;99.90;;;;;;5031052;28;20509;-87
2021/12/27 04:30:16;;;;;;;1.30;1.20;;;-4.30;99.90;;;;;;5028240;28;20453;-85
2021/12/27 04:32:42;;;;;;;1.40;1.30;;;-4.30;99.90;;;;;;5027552;28;20497;-86
2021/12/27 04:35:08;;;;;;;1.47;1.37;;;-4.40;99.90;;;;;;5030494;28;20593;-86
2021/12/27 04:37:34;;;;;;;4.07;3.87;;;-4.50;99.90;;;;;;5026525;28;20450;-86
2021/12/27 04:40:00;;;;;;;1.30;1.20;;;-4.50;99.90;;;;;;5030591;28;20794;-86
2021/12/27 04:42:29;;;;;;;1.47;1.37;;;-4.50;99.90;;;;;;5030097;28;20198;-85
2021/12/27 04:44:55;;;;;;;2.10;2.00;;;-4.60;99.90;;;;;;5028205;28;20513;-86
2021/12/27 04:47:20;;;;;;;1.33;1.23;;;-4.60;99.90;;;;;;5029774;28;20447;-86
2021/12/27 04:49:46;;;;;;;1.53;1.43;;;-4.60;99.90;;;;;;5030087;28;20549;-86
2021/12/27 04:52:12;;;;;;;1.20;1.13;;;-4.60;99.90;;;;;;5029797;28;20627;-85
2021/12/27 04:54:38;;;;;;;1.30;1.20;;;-4.60;99.90;;;;;;5023613;28;20232;-86
2021/12/27 04:57:04;;;;;;;1.40;1.30;;;-4.70;99.90;;;;;;5028773;28;20648;-86
2021/12/27 04:59:30;;;;;;;1.50;1.40;;;-4.80;99.90;;;;;;5045025;28;20513;-86
2021/12/27 05:01:56;;;;;;;1.40;1.30;;;-4.70;99.90;;;;;;5027282;28;20207;-86
2021/12/27 05:04:21;;;;;;;1.67;1.57;;;-4.70;99.90;;;;;;5029462;28;20194;-85
2021/12/27 05:06:47;;;;;;;1.77;1.67;;;-4.70;99.90;;;;;;5029698;28;20555;-86
2021/12/27 05:09:12;;;;;;;1.50;1.40;;;-4.60;99.90;;;;;;5023768;28;20191;-86
2021/12/27 05:11:39;;;;;;;1.40;1.30;;;-4.60;99.90;;;;;;5025701;28;20468;-86
2021/12/27 05:14:05;;;;;;;1.50;1.40;;;-4.50;99.90;;;;;;5044561;28;20188;-86
2021/12/27 05:16:30;;;;;;;1.30;1.20;;;-4.50;99.90;;;;;;5029642;28;20812;-86
2021/12/27 05:18:56;;;;;;;1.30;1.20;;;-4.50;99.90;;;;;;5029820;28;20202;-86
2021/12/27 05:21:21;;;;;;;1.40;1.30;;;-4.50;99.90;;;;;;5022458;28;20600;-86
2021/12/27 05:23:47;;;;;;;1.47;1.37;;;-4.50;99.90;;;;;;5018565;28;20686;-86
2021/12/27 05:26:12;;;;;;;1.57;1.47;;;-4.60;99.90;;;;;;5026043;28;20202;-86
2021/12/27 05:28:38;;;;;;;1.50;1.40;;;-4.60;99.90;;;;;;5027296;28;20191;-86
2021/12/27 05:31:03;;;;;;;1.43;1.33;;;-4.50;99.90;;;;;;5028751;28;20196;-86
2021/12/27 05:33:29;;;;;;;1.60;1.50;;;-4.40;99.90;;;;;;5029062;28;22264;-86
2021/12/27 05:35:55;;;;;;;1.30;1.20;;;-4.40;99.90;;;;;;5029490;28;20192;-86
2021/12/27 05:38:20;;;;;;;1.37;1.27;;;-4.30;99.90;;;;;;5027744;28;20933;-86
2021/12/27 05:40:46;;;;;;;1.27;1.17;;;-4.20;99.90;;;;;;5017001;28;20193;-85
2021/12/27 05:43:11;;;;;;;2.37;2.23;;;-4.10;99.90;;;;;;5020198;28;20636;-86
2021/12/27 05:45:37;;;;;;;1.30;1.20;;;-4.20;99.90;;;;;;5029391;28;20540;-86
2021/12/27 05:48:04;;;;;;;1.87;1.67;;;-4.10;99.90;;;;;;5028189;28;20195;-85
2021/12/27 05:50:30;;;;;;;1.63;1.53;;;-4.10;99.90;;;;;;5026902;28;20701;-86
2021/12/27 05:52:56;;;;;;;1.60;1.50;;;-4.00;99.90;;;;;;5019672;28;20581;-86
2021/12/27 05:55:22;;;;;;;1.30;1.20;;;-4.00;99.90;;;;;;5023615;28;20192;-86
2021/12/27 05:57:47;;;;;;;1.30;1.20;;;-4.00;99.90;;;;;;5025022;28;20195;-86
2021/12/27 06:00:13;;;;;;;3.40;3.20;;;-3.90;99.90;;;;;;5028397;28;20241;-86
2021/12/27 06:02:40;;;;;;;1.40;1.30;;;;;;;;;;5023898;28;20246;-87
2021/12/27 06:05:06;;;;;;;1.50;1.40;;;;;;;;;;5029066;28;20950;-86
2021/12/27 06:07:32;;;;;;;1.40;1.30;;;;;;;;;;5026687;28;20427;-86
2021/12/27 06:09:58;;;;;;;1.20;1.10;;;;;;;;;;5023792;28;20439;-85
2021/12/27 06:12:24;;;;;;;1.23;1.13;;;;;;;;;;5026837;28;20493;-86
2021/12/27 06:14:50;;;;;;;1.37;1.27;;;-3.90;99.90;;;;;;5026305;28;20442;-85
2021/12/27 06:17:16;;;;;;;1.53;1.43;;;-3.80;99.90;;;;;;5043365;28;20507;-86
2021/12/27 06:19:41;;;;;;;1.37;1.27;;;-3.90;99.90;;;;;;5025827;28;20188;-86
2021/12/27 06:22:07;;;;;;;1.27;1.17;;;-3.80;99.90;;;;;;5027925;28;20223;-84
2021/12/27 06:24:33;;;;;;;1.60;1.50;;;;;;;;;;5028793;28;20195;-85
2021/12/27 06:26:59;;;;;;;1.30;1.20;;;;;;;;;;5024387;28;20207;-85
2021/12/27 06:29:25;;;;;;;1.87;1.77;;;-3.90;99.90;;;;;;5028393;28;20438;-85
2021/12/27 06:31:51;;;;;;;1.40;1.30;;;;;;;;;;5026191;28;20481;-85
2021/12/27 06:34:17;;;;;;;1.57;1.47;;;;;;;;;;5023319;28;20665;-86
2021/12/27 06:36:42;;;;;;;1.40;1.30;;;-3.90;99.90;;;;;;5029901;28;21012;-86
2021/12/27 06:39:08;;;;;;;1.60;1.50;;;;;;;;;;5024006;28;20446;-86
2021/12/27 06:41:34;;;;;;;1.23;1.13;;;-3.80;99.90;;;;;;5028806;28;20282;-85
2021/12/27 06:44:01;;;;;;;3.77;3.57;;;-3.80;99.90;;;;;;5022653;28;21006;-87
2021/12/27 06:46:26;;;;;;;1.30;1.20;;;-3.70;99.90;;;;;;5025648;28;20456;-86
2021/12/27 06:48:52;;;;;;;1.53;1.43;;;-3.90;99.90;;;;;;5028770;28;20537;-86
2021/12/27 06:51:18;;;;;;;1.50;1.40;;;-3.80;99.90;;;;;;5028739;28;20772;-86
2021/12/27 06:53:44;;;;;;;1.40;1.30;;;-3.80;99.90;;;;;;5021902;28;20485;-86
2021/12/27 06:56:10;;;;;;;1.60;1.50;;;-3.70;99.90;;;;;;5028954;28;20985;-87
2021/12/27 06:58:35;;;;;;;1.17;1.07;;;-3.70;99.90;;;;;;5031313;28;20678;-87
2021/12/27 07:01:02;;;;;;;1.50;1.40;;;-3.80;99.90;;;;;;5035542;28;20563;-88
2021/12/27 07:03:27;;;;;;;1.67;1.57;;;-3.70;99.90;;;;;;5029206;28;20179;-87
2021/12/27 07:05:53;;;;;;;0.90;0.90;;;-3.70;99.90;;;;;;5033700;28;20446;-86
2021/12/27 07:08:19;;;;;;;1.20;1.10;;;-3.60;99.90;;;;;;5032105;28;20555;-87
2021/12/27 07:10:45;;;;;;;1.20;1.10;;;-3.70;99.90;;;;;;5030718;28;20226;-86
2021/12/27 07:13:11;;;;;;;1.50;1.40;;;-3.70;99.90;;;;;;5048057;28;20536;-87
2021/12/27 07:15:44;;;;;;;2.27;2.17;;;-3.70;99.90;;;;;;5031492;28;20201;-87
2021/12/27 07:18:16;;;;;;;1.40;1.30;;;-3.70;99.90;;;;;;5027649;28;20266;-87
2021/12/27 07:20:42;;;;;;;1.40;1.30;;;-3.80;99.90;;;;;;5023871;28;20470;-86
2021/12/27 07:23:08;;;;;;;1.20;1.10;;;-3.80;99.90;;;;;;5027522;28;21064;-87
2021/12/27 07:25:33;;;;;;;1.50;1.40;;;-3.70;99.90;;;;;;5021097;28;20541;-87
2021/12/27 07:27:59;;;;;;;1.40;1.30;;;-3.80;99.90;;;;;;5028649;28;20484;-88
2021/12/27 07:30:26;;;;;;;2.13;2.03;;;-3.70;99.90;;;;;;5033758;28;20190;-87
2021/12/27 07:32:51;;;;;;;1.80;1.70;;;-3.70;99.90;;;;;;5034989;28;20220;-87
2021/12/27 07:35:17;;;;;;;1.63;1.53;;;-3.60;99.90;;;;;;5033595;28;20461;-86
2021/12/27 07:37:43;;;;;;;1.50;1.40;;;-3.70;99.90;;;;;;5033097;28;20194;-86
2021/12/27 07:40:10;;;;;;;1.50;1.40;;;-3.70;99.90;;;;;;5032281;28;20445;-86
2021/12/27 07:42:35;;;;;;;1.40;1.30;;;-3.70;99.90;;;;;;5035933;28;20195;-86
2021/12/27 07:45:02;;;;;;;3.47;3.00;;;-3.70;99.90;;;;;;5029322;28;20450;-85
2021/12/27 07:47:28;;;;;;;1.83;1.73;;;-3.70;99.90;;;;;;5023222;28;20187;-86
2021/12/27 07:49:53;;;;;;;1.50;1.40;;;-3.70;99.90;;;;;;5028081;28;20438;-87
2021/12/27 07:52:19;;;;;;;1.30;1.20;;;-3.70;99.90;;;;;;5027143;28;20231;-86
2021/12/27 07:54:45;;;;;;;1.67;1.57;;;-3.80;99.90;;;;;;5029952;28;20227;-85
2021/12/27 07:57:11;;;;;;;1.37;1.27;;;-3.80;99.90;;;;;;5029383;28;20517;-88
2021/12/27 07:59:37;;;;;;;1.30;1.20;;;-3.70;99.90;;;;;;5024334;28;20635;-85
2021/12/27 08:02:03;;;;;;;2.60;2.50;;;-3.80;99.90;;;;;;5030348;28;20462;-86
2021/12/27 08:04:29;;;;;;;1.27;1.17;;;-3.80;99.90;;;;;;5028626;28;20435;-86
2021/12/27 08:06:54;;;;;;;1.50;1.40;;;-3.70;99.90;;;;;;5030719;28;20442;-86
2021/12/27 08:09:20;;;;;;;1.20;1.10;;;-3.70;99.90;;;;;;5031370;28;20195;-86
2021/12/27 08:11:46;;;;;;;1.70;1.60;;;-3.70;99.90;;;;;;5024982;28;20195;-86
2021/12/27 08:14:11;;;;;;;1.50;1.40;;;-3.60;99.90;;;;;;5031553;28;20199;-86
2021/12/27 08:16:37;;;;;;;1.43;1.33;;;-3.70;99.90;;;;;;5021437;28;20215;-86
2021/12/27 08:19:02;;;;;;;2.30;2.10;;;-3.60;99.90;;;;;;5011090;28;20192;-86
2021/12/27 08:21:29;;;;;;;1.40;1.30;;;-3.50;99.90;;;;;;5013144;28;20577;-87
2021/12/27 08:23:55;;;;;;;1.20;1.10;;;-3.70;99.90;;;;;;5019821;28;20979;-87
2021/12/27 08:26:21;;;;;;;1.30;1.20;;;-3.60;99.90;;;;;;5013880;28;20453;-87
2021/12/27 08:28:50;;;;;;;1.57;1.47;;;-3.50;99.90;;;;;;5016984;28;20201;-87
2021/12/27 08:31:15;;;;;;;2.23;2.13;;;-3.50;99.90;;;;;;5028730;28;20187;-86
2021/12/27 08:33:41;;;;;;;1.30;1.20;;;-3.60;99.90;;;;;;5030663;28;20489;-86
2021/12/27 08:36:06;;;;;;;1.57;1.47;;;-3.50;99.90;;;;;;5025487;28;20211;-86
2021/12/27 08:38:32;;;;;;;1.13;1.03;;;-3.60;99.90;;;;;;5029098;28;20187;-86
2021/12/27 08:40:58;;;;;;;1.40;1.30;;;-3.40;99.90;;;;;;5024187;28;20201;-86
2021/12/27 08:43:25;;;;;;;1.50;1.40;;;-3.50;99.90;;;;;;5031493;28;20192;-86
2021/12/27 08:45:51;;;;;;;2.43;2.27;;;-3.50;99.90;;;;;;5030531;28;20172;-86
2021/12/27 08:48:17;;;;;;;1.20;1.10;;;-3.30;99.90;;;;;;5025993;28;20439;-86
2021/12/27 08:50:42;;;;;;;1.77;1.67;;;-3.40;99.90;;;;;;5030875;28;20801;-86
2021/12/27 08:53:08;;;;;;;1.33;1.23;;;-3.30;99.90;;;;;;5026144;28;20222;-87
2021/12/27 08:55:35;;;;;;;1.07;1.00;;;-3.40;99.90;;;;;;5028774;28;20184;-87
2021/12/27 08:58:02;;;;;;;1.20;1.10;;;-3.40;99.90;;;;;;5028443;28;20198;-87
2021/12/27 09:00:27;;;;;;;1.33;1.23;;;-3.30;99.90;;;;;;5027791;28;20433;-87
2021/12/27 09:02:53;;;;;;;1.30;1.20;;;-3.30;99.90;;;;;;5029190;28;20441;-86
2021/12/27 09:05:18;;;;;;;1.20;1.10;;;-3.20;99.90;;;;;;5031483;28;20194;-87
2021/12/27 09:07:44;;;;;;;2.10;2.00;;;-3.30;99.90;;;;;;5030922;28;20188;-86
2021/12/27 09:10:10;;;;;;;1.90;1.80;;;-3.20;99.90;;;;;;5033782;28;21071;-88
2021/12/27 09:12:38;;;;;;;1.30;1.20;;;-3.20;99.90;;;;;;5029958;28;20218;-86
2021/12/27 09:15:04;;;;;;;1.13;1.03;;;-3.20;99.90;;;;;;5029536;28;20434;-89
2021/12/27 09:17:29;;;;;;;2.63;2.53;;;-3.10;99.90;;;;;;5028303;28;20430;-89
2021/12/27 09:19:55;;;;;;;1.23;1.13;;;-3.10;99.90;;;;;;5028930;28;20509;-89
2021/12/27 09:22:20;;;;;;;1.20;1.10;;;-3.00;99.90;;;;;;5027115;28;20235;-89
2021/12/27 09:24:46;;;;;;;1.20;1.10;;;-2.90;99.90;;;;;;5027855;28;20183;-89
2021/12/27 09:27:12;;;;;;;1.30;1.20;;;-2.90;99.90;;;;;;5029074;28;20180;-89
2021/12/27 09:29:41;;;;;;;1.47;1.37;;;-2.90;99.90;;;;;;5025460;28;20434;-89
2021/12/27 09:32:06;;;;;;;1.20;1.10;;;-2.90;99.90;;;;;;5029625;28;20523;-89
2021/12/27 09:34:32;;;;;;;1.20;1.10;;;-2.90;99.90;;;;;;5029528;28;20446;-90
2021/12/27 09:36:58;;;;;;;1.13;1.03;;;-2.80;99.90;;;;;;5028082;28;20525;-89
2021/12/27 09:39:23;;;;;;;1.10;1.00;;;-2.70;99.90;;;;;;5027494;28;20191;-88
2021/12/27 09:41:49;;;;;;;1.20;1.10;;;-2.80;99.90;;;;;;5028835;28;20270;-87
2021/12/27 09:44:15;;;;;;;1.30;1.20;;;-2.70;99.90;;;;;;5028329;28;20191;-88
2021/12/27 09:46:41;;;;;;;1.20;1.10;;;-2.80;99.90;;;;;;5044105;28;20217;-89
2021/12/27 09:49:10;;;;;;;1.50;1.40;;;-2.70;99.90;;;;;;5028440;28;20184;-89
2021/12/27 09:51:37;;;;;;;1.40;1.30;;;-2.70;99.90;;;;;;5025149;28;20183;-90
2021/12/27 09:54:04;;;;;;;1.57;1.47;;;-2.80;99.90;;;;;;5022306;28;20483;-89
2021/12/27 09:56:30;;;;;;;1.40;1.30;;;-2.70;99.90;;;;;;5025348;28;20438;-89
2021/12/27 09:58:56;;;;;;;2.00;1.90;;;-2.70;99.90;;;;;;5023597;28;20450;-89
2021/12/27 10:01:22;;;;;;;1.50;1.40;;;-2.70;99.90;;;;;;5031036;28;20508;-89
2021/12/27 10:03:49;;;;;;;1.30;1.20;;;-2.70;99.90;;;;;;5027976;28;20442;-88
2021/12/27 10:06:16;;;;;;;4.97;4.67;;;-2.70;99.90;;;;;;5026262;28;20481;-88
2021/12/27 10:08:50;;;;;;;1.33;1.23;;;-2.60;99.90;;;;;;5028524;28;20435;-89
2021/12/27 10:11:35;;;;;;;2.50;2.13;;;-2.60;99.90;;;;;;5023822;28;20429;-89
2021/12/27 10:14:09;;;;;;;1.50;1.40;;;-2.40;99.90;;;;;;5029713;28;20578;-88
2021/12/27 10:16:43;;;;;;;1.30;1.20;;;-2.40;99.90;;;;;;5028072;28;20797;-89
2021/12/27 10:19:10;;;;;;;1.40;1.30;;;-2.60;99.90;;;;;;5027282;28;20945;-88
2021/12/27 10:21:41;;;;;;;1.60;1.50;;;-2.60;99.90;;;;;;5023188;28;20888;-89
2021/12/27 10:24:21;;;;;;;2.23;2.13;;;-2.50;99.90;;;;;;5024294;28;20453;-89
2021/12/27 10:26:49;;;;;;;1.53;1.43;;;-2.50;99.90;;;;;;5028250;28;20569;-88
2021/12/27 10:29:25;;;;;;;1.10;1.00;;;-2.50;99.90;;;;;;5046006;28;20509;-89
2021/12/27 10:32:29;;;;;;;1.63;1.53;;;-2.60;99.90;;;;;;5022185;28;20796;-88
2021/12/27 10:34:54;;;;;;;2.80;2.20;;;-2.50;99.90;;;;;;5009263;28;20441;-88
2021/12/27 10:37:24;;;;;;;1.80;1.70;;;-2.50;99.90;;;;;;5032379;28;20445;-89
2021/12/27 10:39:58;;;;;;;2.43;2.23;;;-2.50;99.90;;;;;;5032469;28;20673;-87
2021/12/27 10:42:36;;;;;;;1.30;1.20;;;-2.60;99.90;;;;;;5032467;28;20446;-88
2021/12/27 10:45:16;;;;;;;1.50;1.40;;;-2.60;99.90;;;;;;5041341;28;20952;-89
2021/12/27 10:47:53;;;;;;;1.70;1.60;;;-2.50;99.90;;;;;;5030844;28;20470;-90
2021/12/27 10:50:19;;;;;;;1.40;1.30;;;-2.50;99.90;;;;;;5031034;28;20600;-92
2021/12/27 10:53:05;;;;;;;1.53;1.43;;;-2.50;99.90;;;;;;5032814;28;20566;-91
2021/12/27 10:55:46;;;;;;;1.50;1.40;;;-2.40;99.90;;;;;;5032111;28;20446;-90
2021/12/27 10:58:19;;;;;;;1.80;1.70;;;-2.30;99.90;;;;;;5033440;28;20438;-90
2021/12/27 11:01:00;;;;;;;1.23;1.13;;;-2.40;99.90;;;;;;5034417;28;20938;-91
2021/12/27 11:03:36;;;;;;;1.10;1.00;;;-2.50;99.90;;;;;;5032851;28;20430;-90
2021/12/27 11:06:05;;;;;;;1.10;1.00;;;-2.60;99.90;;;;;;5033468;28;20441;-89
2021/12/27 11:08:33;;;;;;;1.10;1.00;;;-2.40;99.90;;;;;;5034764;28;20487;-90
2021/12/27 11:10:59;;;;;;;2.17;2.07;;;-2.30;99.90;;;;;;5029876;28;20520;-89
2021/12/27 11:13:26;;;;;;;1.30;1.20;;;-2.20;99.90;;;;;;5032727;28;20478;-89
2021/12/27 11:15:52;;;;;;;1.30;1.20;;;-2.20;99.90;;;;;;5026411;28;20437;-86
2021/12/27 11:18:18;;;;;;;1.40;1.30;;;-2.20;99.90;;;;;;5032326;28;20449;-86
2021/12/27 11:20:51;;;;;;;1.40;1.30;;;-2.10;99.90;;;;;;5031631;28;20477;-85
2021/12/27 11:23:19;;;;;;;1.20;1.10;;;-2.00;99.90;;;;;;5029593;28;20446;-85
2021/12/27 11:25:45;;;;;;;1.87;1.77;;;-1.90;99.90;;;;;;5028602;28;20473;-86
2021/12/27 11:28:26;;;;;;;1.23;1.13;;;-2.10;99.90;;;;;;5022696;28;20474;-86
2021/12/27 11:30:53;;;;;;;1.30;1.20;;;-2.10;99.90;;;;;;5025673;28;20429;-85
2021/12/27 11:33:22;;;;;;;1.40;1.30;;;-2.10;99.90;;;;;;5025919;28;20486;-86
2021/12/27 11:35:57;;;;;;;1.43;1.33;;;-2.10;99.90;;;;;;5019622;28;20463;-86
2021/12/27 11:38:38;;;;;;;1.40;1.30;;;-2.10;99.90;;;;;;5023862;28;20457;-85
2021/12/27 11:41:26;;;;;;;2.37;2.27;;;-2.00;99.90;;;;;;5027641;28;20431;-84
2021/12/27 11:44:07;;;;;;;1.93;1.83;;;-2.10;99.90;;;;;;5027941;28;21070;-84
2021/12/27 11:46:48;;;;;;;1.97;1.87;;;-2.10;99.90;;;;;;5028979;28;20444;-85
2021/12/27 11:49:14;;;;;;;1.60;1.50;;;-2.10;99.90;;;;;;5024746;28;20436;-84
2021/12/27 11:51:40;;;;;;;1.60;1.50;;;-2.10;99.90;;;;;;5030362;28;20434;-85
2021/12/27 11:54:29;;;;;;;3.93;3.77;;;-2.10;99.90;;;;;;5027198;28;20854;-85
2021/12/27 11:56:56;;;;;;;1.40;1.30;;;-1.90;99.90;;;;;;5023265;28;20431;-85
2021/12/27 11:59:35;;;;;;;13.70;4.17;;;-1.80;99.90;;;;;;5023380;28;20976;-86
2021/12/27 12:02:16;;;;;;;1.63;1.53;;;-1.80;99.90;;;;;;5021528;28;20490;-85
2021/12/27 12:04:50;;;;;;;1.10;1.00;;;-1.70;99.90;;;;;;5026067;28;20488;-85
2021/12/27 12:07:33;;;;;;;1.87;1.77;;;-1.80;99.90;;;;;;5017854;28;20930;-85
2021/12/27 12:10:00;;;;;;;1.20;1.10;;;-1.80;99.90;;;;;;5024527;28;20453;-86
2021/12/27 12:12:28;;;;;;;1.93;1.83;;;-1.90;99.90;;;;;;5031368;28;20596;-85
2021/12/27 12:14:56;;;;;;;1.27;1.17;;;-1.90;99.90;;;;;;5030291;28;20980;-86
2021/12/27 12:17:48;;;;;;;1.10;1.00;;;-1.90;99.90;;;;;;5028791;28;20434;-86
2021/12/27 12:22:59;;;;;;;1.30;1.20;;;-1.80;99.90;;;;;;5066413;27;20644;-86
2021/12/27 12:25:25;;;;;;;1.20;1.10;;;-1.80;99.90;;;;;;5044278;28;20469;-86
2021/12/27 12:27:53;;;;;;;1.60;1.50;;;-1.80;99.90;;;;;;5049553;28;21181;-86
2021/12/27 12:30:20;;;;;;;1.03;0.93;;;-1.80;99.90;;;;;;5054702;28;20183;-86
2021/12/27 12:33:06;;;;;;;2.03;1.93;;;-1.80;99.90;;;;;;5052075;28;20436;-88
2021/12/27 12:35:49;;;;;;;2.50;2.30;;;-1.90;99.90;;;;;;5055627;28;20996;-87
2021/12/27 12:38:33;;;;;;;1.10;1.00;;;-1.70;99.90;;;;;;5044392;28;20439;-86
2021/12/27 12:41:12;;;;;;;1.40;1.30;;;-1.70;99.90;;;;;;5046281;28;20880;-86
2021/12/27 12:43:45;;;;;;;0.90;0.90;;;-1.70;99.90;;;;;;5075204;28;20866;-85
2021/12/27 12:46:28;;;;;;;1.50;1.40;;;-1.60;99.90;;;;;;5046624;28;20524;-84
2021/12/27 12:49:02;;;;;;;2.07;1.97;;;-1.60;99.90;;;;;;5065151;28;20489;-86
2021/12/27 12:51:34;;;;;;;3.50;3.20;;;-1.50;99.90;;;;;;5044786;28;20523;-85
2021/12/27 12:54:01;;;;;;;1.30;1.20;;;-1.70;99.90;;;;;;5045546;28;20518;-85
2021/12/27 12:56:31;;;;;;;1.20;1.10;;;-1.80;99.90;;;;;;5044035;28;20448;-84
2021/12/27 12:58:57;;;;;;;5.23;3.60;;;-1.80;99.90;;;;;;5047075;28;20476;-85